Airfield :
LOGIN :

Register | Disclaimer

   EN    FR    IT 

 










Legend :    VFR   Marginal VFR   IFR   Intensive IFR   Very Intensive IFR
Visi :
Ceiling :
>= 8 km
>= 3000ft
5 to 8 km
1000 to 3000 ft
1500m to 5 km
500 to 1000 ft
800 to 1500m
200 to 500 ft
< 800m
< 200 ft
Symbols :   Thunderstorms  Fog  Heavy snow  Heavy precipitations  Wind > 20 kt
SIGMETs :     Misc.  Thunderstorms  Icing  Turbulence  Mountain Waves  Volcanic Ashes







- Airport Elevation : 376 ft


LHKE - Kecskemét

CURRENT METAR :
  • 152245Z 00000KT 6000 NSC M01/M01 Q1032 NOSIG RMK WHT

EXPIRED METARs :
  • 152215Z 00000KT 6000 NSC M00/M02 Q1032 TEMPO 5000 BR RMK WHT
  • 152145Z 26002KT 8000 NSC M00/M01 Q1032 NOSIG RMK BLU
  • 152115Z 26002KT 8000 NSC M00/M02 Q1032 NOSIG RMK BLU
  • 152045Z 00000KT 8000 NSC M00/M02 Q1033 NOSIG RMK BLU
  • 152015Z 28002KT 8000 NSC 00/M02 Q1033 NOSIG RMK BLU

TAF TAF LHKE
Valid from the 15 at 21:00 until the 16 at 06:00 UTC


152015Z 1521/1606 24004KT 6000 NSC
TEMPO 1521/1606 3000 BR
PROB40
TEMPO 1523/1606 0350 FG FZFG BKN003
No reported NOTAMs for that airfield.



MET'MAP, your aeronautical weather chart ! - Copyright ORBIFLY December 2007 - Disclaimer

ORBIFLY MET'MAP TEAM :

Programming & Development : Alexandra Zaïnal
Concept & Development : Baudouin d'Aumeries
Co-Development & Prog : Marc-Olivier Méhu
Technical & hardware support : Manuel Goepfert

Contact : metmap@orbifly.com




SOURCES & CREDITS :

   NOAA